createdAt,value
2019-02-23T00:01:47.174Z,20.57
2019-02-23T00:04:16.918Z,24.27
2019-02-23T00:06:46.620Z,20.00
2019-02-23T00:09:16.289Z,20.83
2019-02-23T00:11:45.998Z,20.63
2019-02-23T00:14:15.668Z,16.77
2019-02-23T00:16:45.353Z,26.10
2019-02-23T00:19:24.412Z,19.90
2019-02-23T00:21:46.397Z,23.57
2019-02-23T00:24:16.082Z,22.40
2019-02-23T00:26:45.753Z,22.87
2019-02-23T00:29:15.499Z,29.23
2019-02-23T00:31:45.182Z,26.57
2019-02-23T00:34:14.858Z,31.07
2019-02-23T00:36:44.703Z,30.57
2019-02-23T00:39:14.341Z,25.63
2019-02-23T00:41:44.030Z,24.33
2019-02-23T00:44:13.735Z,26.17
2019-02-23T00:46:43.597Z,27.27
2019-02-23T00:49:13.902Z,29.97
2019-02-23T00:51:43.978Z,23.77
2019-02-23T00:54:13.655Z,33.83
2019-02-23T00:56:43.390Z,28.33
2019-02-23T00:59:13.046Z,25.83
2019-02-23T01:01:42.729Z,21.70
2019-02-23T01:04:12.433Z,18.70
2019-02-23T01:06:42.135Z,17.83
2019-02-23T01:09:11.822Z,21.97
2019-02-23T01:11:41.539Z,31.83
2019-02-23T01:14:11.216Z,30.97
2019-02-23T01:16:59.911Z,28.20
2019-02-23T01:19:29.633Z,21.57
2019-02-23T01:21:59.359Z,27.50
2019-02-23T01:24:29.033Z,16.03
2019-02-23T01:26:58.677Z,16.17
2019-02-23T01:29:28.380Z,19.43
2019-02-23T01:31:58.078Z,19.47
2019-02-23T01:34:27.766Z,16.40
2019-02-23T01:36:57.596Z,22.83
2019-02-23T01:39:27.260Z,21.33
2019-02-23T01:41:57.043Z,20.97
2019-02-23T01:44:26.753Z,19.17
2019-02-23T01:46:56.796Z,22.47
2019-02-23T01:49:26.557Z,16.20
2019-02-23T01:51:56.314Z,19.90
2019-02-23T01:54:26.015Z,22.40
2019-02-23T01:56:55.691Z,17.47
2019-02-23T01:59:25.347Z,19.40
2019-02-23T02:01:55.468Z,16.47
2019-02-23T02:04:25.140Z,21.77
2019-02-23T02:06:56.195Z,20.87
2019-02-23T02:09:25.974Z,26.30
2019-02-23T02:11:55.716Z,22.20
2019-02-23T02:14:25.691Z,21.37
2019-02-23T02:16:55.346Z,19.50
2019-02-23T02:19:25.958Z,21.67
2019-02-23T02:21:55.629Z,16.27
2019-02-23T02:24:25.351Z,17.87
2019-02-23T02:26:55.080Z,14.90
2019-02-23T02:29:24.739Z,20.30
2019-02-23T02:31:54.414Z,15.63
2019-02-23T02:34:24.134Z,14.00
2019-02-23T02:36:53.808Z,11.27
2019-02-23T02:39:23.446Z,14.77
2019-02-23T02:41:53.184Z,14.00
2019-02-23T02:44:22.875Z,11.83
2019-02-23T02:46:52.560Z,12.67
2019-02-23T02:49:22.278Z,13.57
2019-02-23T02:51:52.299Z,11.60
2019-02-23T02:54:22.010Z,14.77
2019-02-23T02:56:51.708Z,10.43
2019-02-23T02:59:21.376Z,12.13
2019-02-23T03:01:51.082Z,15.20
2019-02-23T03:04:20.770Z,15.90
2019-02-23T03:06:50.453Z,14.60
2019-02-23T03:09:20.138Z,17.23
2019-02-23T03:11:50.261Z,18.13
2019-02-23T03:14:19.927Z,11.53
2019-02-23T03:16:49.619Z,16.73
2019-02-23T03:19:19.308Z,15.13
2019-02-23T03:21:49.015Z,16.20
2019-02-23T03:24:18.678Z,12.27
2019-02-23T03:26:48.386Z,12.00
2019-02-23T03:29:18.091Z,12.57
2019-02-23T03:31:47.816Z,13.33
2019-02-23T03:34:17.495Z,14.47
2019-02-23T03:36:47.189Z,18.47
2019-02-23T03:39:16.866Z,11.53
2019-02-23T03:41:46.549Z,16.70
2019-02-23T03:44:16.243Z,13.63
2019-02-23T03:46:45.917Z,17.60
2019-02-23T03:49:15.622Z,15.83
2019-02-23T03:51:45.330Z,17.73
2019-02-23T03:54:15.126Z,15.13
2019-02-23T03:56:44.796Z,14.73
2019-02-23T03:59:14.530Z,16.23
2019-02-23T04:01:44.187Z,16.37
2019-02-23T04:04:13.896Z,14.07
2019-02-23T04:06:43.581Z,19.00
2019-02-23T04:09:13.278Z,21.30
2019-02-23T04:11:42.951Z,20.77
2019-02-23T04:14:12.657Z,19.57
2019-02-23T04:16:42.394Z,16.67
2019-02-23T04:19:12.074Z,20.93
2019-02-23T04:21:41.822Z,26.87
2019-02-23T04:24:11.545Z,30.97
2019-02-23T04:26:41.215Z,28.03
2019-02-23T04:29:10.875Z,27.93
2019-02-23T04:31:40.634Z,27.17
2019-02-23T04:34:10.298Z,28.77
2019-02-23T04:36:39.971Z,31.63
2019-02-23T04:39:09.666Z,32.10
2019-02-23T04:41:39.428Z,33.33
2019-02-23T04:44:09.134Z,33.77
2019-02-23T04:46:38.827Z,30.97
2019-02-23T04:49:08.557Z,31.90
2019-02-23T04:51:38.289Z,23.80
2019-02-23T04:54:07.973Z,26.30
2019-02-23T04:56:37.650Z,28.20
2019-02-23T04:59:07.360Z,31.43
2019-02-23T05:01:37.061Z,24.03
2019-02-23T05:04:06.769Z,23.97
2019-02-23T05:06:36.500Z,34.83
2019-02-23T05:09:06.614Z,40.97
2019-02-23T05:11:36.327Z,36.97
2019-02-23T05:14:05.989Z,32.03
2019-02-23T05:16:35.679Z,34.07
2019-02-23T05:19:05.468Z,33.83
2019-02-23T05:21:35.177Z,27.17
2019-02-23T05:24:04.872Z,30.53
2019-02-23T05:26:34.562Z,29.70
2019-02-23T05:29:04.235Z,36.17
2019-02-23T05:31:33.943Z,28.20
2019-02-23T05:34:03.692Z,25.40
2019-02-23T05:36:33.418Z,27.00
2019-02-23T05:39:04.479Z,22.13
2019-02-23T05:41:34.173Z,23.13
2019-02-23T05:44:03.947Z,21.90
2019-02-23T05:46:33.661Z,26.30
2019-02-23T05:49:04.243Z,26.20
2019-02-23T05:51:38.726Z,28.00
2019-02-23T05:54:05.344Z,25.57
2019-02-23T05:56:35.107Z,27.50
2019-02-23T05:59:04.807Z,28.77
2019-02-23T06:01:34.487Z,27.37
2019-02-23T06:04:04.187Z,30.40
2019-02-23T06:06:33.972Z,28.43
2019-02-23T06:09:04.744Z,24.83
2019-02-23T06:11:34.414Z,26.23
2019-02-23T06:14:04.202Z,25.63
2019-02-23T06:16:33.921Z,26.67
2019-02-23T06:19:03.633Z,33.27
2019-02-23T06:21:33.331Z,41.53
2019-02-23T06:24:03.701Z,40.50
2019-02-23T06:26:33.407Z,46.27
2019-02-23T06:29:03.117Z,45.87
2019-02-23T06:31:32.830Z,45.73
2019-02-23T06:34:12.506Z,49.57
2019-02-23T06:36:33.925Z,40.43
2019-02-23T06:39:04.945Z,35.23
2019-02-23T06:41:34.618Z,40.47
2019-02-23T06:44:04.381Z,32.33
2019-02-23T06:46:34.095Z,35.27
2019-02-23T06:49:03.832Z,34.57
2019-02-23T06:51:33.545Z,34.00
2019-02-23T06:54:03.229Z,42.07
2019-02-23T06:56:32.996Z,33.57
2019-02-23T06:59:02.706Z,32.83
2019-02-23T07:01:32.451Z,26.03
2019-02-23T07:04:02.125Z,27.40
2019-02-23T07:06:31.796Z,26.90
2019-02-23T07:09:01.559Z,23.07
2019-02-23T07:11:31.307Z,24.43
2019-02-23T07:14:01.150Z,24.80
2019-02-23T07:16:30.910Z,25.07
2019-02-23T07:19:00.711Z,24.17
2019-02-23T07:21:30.484Z,26.57
2019-02-23T07:24:00.533Z,25.53
2019-02-23T07:26:30.295Z,23.00
2019-02-23T07:28:59.960Z,26.07
2019-02-23T07:31:29.629Z,22.40
2019-02-23T07:33:59.313Z,24.90
2019-02-23T07:36:29.017Z,27.60
2019-02-23T07:38:58.727Z,29.20
2019-02-23T07:41:29.540Z,25.87
2019-02-23T07:43:59.205Z,29.07
2019-02-23T07:46:28.880Z,33.33
2019-02-23T07:48:58.602Z,22.03
2019-02-23T07:51:28.726Z,24.90
2019-02-23T07:53:58.387Z,25.77
2019-02-23T07:56:28.161Z,27.43
2019-02-23T07:58:57.837Z,28.97
2019-02-23T08:01:27.547Z,29.57
2019-02-23T08:03:57.231Z,27.93
2019-02-23T08:06:26.980Z,21.63
2019-02-23T08:08:56.649Z,25.07
2019-02-23T08:11:26.322Z,25.63
2019-02-23T08:13:56.561Z,28.30
2019-02-23T08:16:28.018Z,27.30
2019-02-23T08:18:59.194Z,27.33
2019-02-23T08:21:29.101Z,23.23
2019-02-23T08:23:59.020Z,23.63
2019-02-23T08:26:28.718Z,17.57
2019-02-23T08:28:58.481Z,17.77
2019-02-23T08:31:28.271Z,14.60
2019-02-23T08:33:57.979Z,16.07
2019-02-23T08:36:27.940Z,17.20
2019-02-23T08:38:57.624Z,16.97
2019-02-23T08:41:27.329Z,15.00
2019-02-23T08:43:57.033Z,17.33
2019-02-23T08:46:26.780Z,17.00
2019-02-23T08:48:56.463Z,16.93
2019-02-23T08:51:26.306Z,14.67
2019-02-23T08:53:56.043Z,13.83
2019-02-23T08:56:25.838Z,12.30
2019-02-23T08:58:55.527Z,11.57
2019-02-23T09:01:25.199Z,18.80
2019-02-23T09:03:54.915Z,21.43
2019-02-23T09:06:24.729Z,23.90
2019-02-23T09:08:54.539Z,16.97
2019-02-23T09:11:24.296Z,13.63
2019-02-23T09:13:53.972Z,14.50
2019-02-23T09:16:23.722Z,10.93
2019-02-23T09:18:54.288Z,11.93
2019-02-23T09:21:23.986Z,12.83
2019-02-23T09:23:54.827Z,15.40
2019-02-23T09:26:24.529Z,8.87
2019-02-23T09:28:54.300Z,14.70
2019-02-23T09:31:23.997Z,12.83
2019-02-23T09:33:53.691Z,11.93
2019-02-23T09:36:23.475Z,12.83
2019-02-23T09:38:53.176Z,13.53
2019-02-23T09:41:22.835Z,17.00
2019-02-23T09:43:52.545Z,9.70
2019-02-23T09:46:22.216Z,11.93
2019-02-23T09:48:53.500Z,11.17
2019-02-23T09:51:23.831Z,11.37
2019-02-23T09:53:53.583Z,10.90
2019-02-23T09:56:23.345Z,30.03
2019-02-23T09:58:53.010Z,22.03
2019-02-23T10:01:24.802Z,56.67
2019-02-23T10:03:54.507Z,29.87
2019-02-23T10:06:24.212Z,13.23
2019-02-23T10:08:53.946Z,20.40
2019-02-23T10:11:23.669Z,20.40
2019-02-23T10:13:53.349Z,11.90
2019-02-23T10:16:23.071Z,9.07
2019-02-23T10:18:52.782Z,8.23
2019-02-23T10:21:22.459Z,11.23
2019-02-23T10:23:52.204Z,8.90
2019-02-23T10:26:21.899Z,15.83
2019-02-23T10:28:51.560Z,10.97
2019-02-23T10:31:23.221Z,9.27
2019-02-23T10:33:52.873Z,13.93
2019-02-23T10:36:22.581Z,9.40
2019-02-23T10:38:52.241Z,6.17
2019-02-23T10:41:21.957Z,6.80
2019-02-23T10:43:51.722Z,9.90
2019-02-23T10:46:22.959Z,12.23
2019-02-23T10:48:52.634Z,10.83
2019-02-23T10:51:22.365Z,15.93
2019-02-23T10:53:52.103Z,13.53
2019-02-23T10:56:21.775Z,14.47
2019-02-23T10:58:51.515Z,12.93
2019-02-23T11:01:21.247Z,12.37
2019-02-23T11:03:50.921Z,11.90
2019-02-23T11:06:20.703Z,12.17
2019-02-23T11:08:50.390Z,9.03
2019-02-23T11:11:20.200Z,8.47
2019-02-23T11:13:49.926Z,8.50
2019-02-23T11:16:20.070Z,11.83
2019-02-23T11:18:49.753Z,11.10
2019-02-23T11:21:19.493Z,10.97
2019-02-23T11:23:49.243Z,12.97
2019-02-23T11:26:18.919Z,12.57
2019-02-23T11:28:48.766Z,9.17
2019-02-23T11:31:18.478Z,9.70
2019-02-23T11:33:48.185Z,12.10
2019-02-23T11:36:17.881Z,10.67
2019-02-23T11:38:47.622Z,10.47
2019-02-23T11:41:17.337Z,11.57
2019-02-23T11:43:46.977Z,10.57
2019-02-23T11:46:16.753Z,26.10
2019-02-23T11:48:46.433Z,18.20
2019-02-23T11:51:16.192Z,12.27
2019-02-23T11:53:54.687Z,11.10
2019-02-23T11:56:17.289Z,12.40
2019-02-23T11:58:46.993Z,16.30
2019-02-23T12:01:16.681Z,15.60
2019-02-23T12:03:46.389Z,13.70
2019-02-23T12:06:16.094Z,16.30
2019-02-23T12:08:45.819Z,18.70
2019-02-23T12:11:15.877Z,19.93
2019-02-23T12:13:45.656Z,14.17
2019-02-23T12:16:15.320Z,15.63
2019-02-23T12:18:44.977Z,16.70
2019-02-23T12:21:16.368Z,14.23
2019-02-23T12:23:46.135Z,12.93
2019-02-23T12:26:15.890Z,15.30
2019-02-23T12:28:45.539Z,17.30
2019-02-23T12:31:15.194Z,19.03
2019-02-23T12:33:44.897Z,15.93
2019-02-23T12:36:15.053Z,15.37
2019-02-23T12:38:44.729Z,18.53
2019-02-23T12:41:14.406Z,22.27
2019-02-23T12:43:44.123Z,13.93
2019-02-23T12:46:13.802Z,16.43
2019-02-23T12:48:43.847Z,13.50
2019-02-23T12:51:13.582Z,17.60
2019-02-23T12:53:43.267Z,20.63
2019-02-23T12:56:12.974Z,14.03
2019-02-23T12:58:42.694Z,15.10
2019-02-23T13:01:12.360Z,12.60
2019-02-23T13:03:42.012Z,16.43
2019-02-23T13:06:11.700Z,14.53
2019-02-23T13:09:18.320Z,19.07
2019-02-23T13:11:55.323Z,18.20
2019-02-23T13:14:43.701Z,18.13
2019-02-23T13:17:29.122Z,20.37
2019-02-23T13:20:54.663Z,15.90
2019-02-23T13:24:01.999Z,19.63
2019-02-23T13:27:04.396Z,16.93
2019-02-23T13:30:23.747Z,16.37
2019-02-23T13:33:43.262Z,22.20
2019-02-23T13:36:30.103Z,18.70
2019-02-23T13:39:45.061Z,19.53
2019-02-23T13:42:47.884Z,13.60
2019-02-23T13:45:52.316Z,11.53
2019-02-23T13:48:48.919Z,13.77
2019-02-23T13:51:53.341Z,18.73
2019-02-23T13:54:57.282Z,10.43
2019-02-23T13:58:00.044Z,18.53
2019-02-23T14:01:19.627Z,11.97
2019-02-23T14:04:10.360Z,10.17
2019-02-23T14:07:01.271Z,13.80
2019-02-23T14:10:24.899Z,15.50
2019-02-23T14:13:35.365Z,14.93
2019-02-23T14:16:41.459Z,19.93
2019-02-23T14:19:42.739Z,22.40
2019-02-23T14:22:49.986Z,19.70
2019-02-23T14:25:37.516Z,10.63
2019-02-23T14:28:38.635Z,10.50
2019-02-23T14:31:38.038Z,12.20
2019-02-23T14:34:57.266Z,10.63
2019-02-23T14:38:08.609Z,10.23
2019-02-23T14:41:07.267Z,12.97
2019-02-23T14:44:07.105Z,11.80
2019-02-23T14:47:18.917Z,13.40
2019-02-23T14:50:24.343Z,19.70
2019-02-23T14:53:40.195Z,13.57
2019-02-23T14:56:42.835Z,12.77
2019-02-23T14:59:55.599Z,14.17
2019-02-23T15:03:12.130Z,13.40
2019-02-23T15:05:57.067Z,20.27
2019-02-23T15:08:46.535Z,17.87
2019-02-23T15:11:43.760Z,13.20
2019-02-23T15:14:42.473Z,21.80
2019-02-23T15:17:52.230Z,15.47
2019-02-23T15:21:11.859Z,23.83
2019-02-23T15:24:26.919Z,37.77
2019-02-23T15:27:31.553Z,33.10
2019-02-23T15:30:42.146Z,30.23
2019-02-23T15:33:59.176Z,38.57
2019-02-23T15:37:01.094Z,42.27
2019-02-23T15:40:13.458Z,43.27
2019-02-23T15:43:19.442Z,51.20
2019-02-23T15:46:24.505Z,35.57
2019-02-23T15:49:30.873Z,25.27
2019-02-23T15:52:08.086Z,33.87
2019-02-23T15:54:37.923Z,30.10
2019-02-23T15:57:07.606Z,45.27
2019-02-23T15:59:37.267Z,38.80
2019-02-23T16:02:06.948Z,49.27
2019-02-23T16:04:38.452Z,54.73
2019-02-23T16:07:08.161Z,42.90
2019-02-23T16:09:37.871Z,52.30
2019-02-23T16:12:07.555Z,66.87
2019-02-23T16:14:37.375Z,58.00
2019-02-23T16:17:07.214Z,47.07
2019-02-23T16:19:36.858Z,42.10
2019-02-23T16:22:06.550Z,34.87
2019-02-23T16:24:36.309Z,41.40
2019-02-23T16:27:06.193Z,63.90
2019-02-23T16:29:38.845Z,69.83
2019-02-23T16:32:07.227Z,54.17
2019-02-23T16:34:36.950Z,42.07
2019-02-23T16:37:06.595Z,36.30
2019-02-23T16:39:36.330Z,31.07
2019-02-23T16:42:06.043Z,32.77
2019-02-23T16:44:35.787Z,32.00
2019-02-23T16:47:05.480Z,25.20
2019-02-23T16:49:35.275Z,25.53
2019-02-23T16:52:05.021Z,24.67
2019-02-23T16:54:34.681Z,23.90
2019-02-23T16:57:04.743Z,27.47
2019-02-23T16:59:34.434Z,28.97
2019-02-23T17:02:04.144Z,25.57
2019-02-23T17:04:33.814Z,24.63
2019-02-23T17:07:03.532Z,35.13
2019-02-23T17:09:33.315Z,32.60
2019-02-23T17:12:03.005Z,25.77
2019-02-23T17:14:32.713Z,26.27
2019-02-23T17:17:02.573Z,26.60
2019-02-23T17:19:32.249Z,31.17
2019-02-23T17:22:01.906Z,24.83
2019-02-23T17:24:31.675Z,24.97
2019-02-23T17:27:01.777Z,22.03
2019-02-23T17:29:31.432Z,24.53
2019-02-23T17:32:01.182Z,29.80
2019-02-23T17:34:31.364Z,40.90
2019-02-23T17:37:01.031Z,43.87
2019-02-23T17:39:30.715Z,34.57
2019-02-23T17:42:00.446Z,40.53
2019-02-23T17:44:35.627Z,49.37
2019-02-23T17:47:05.313Z,40.80
2019-02-23T17:49:35.091Z,70.03
2019-02-23T17:52:04.759Z,82.03
2019-02-23T17:54:34.470Z,53.53
2019-02-23T17:57:04.137Z,51.40
2019-02-23T17:59:33.837Z,57.20
2019-02-23T18:02:03.538Z,62.30
2019-02-23T18:04:33.202Z,90.13
2019-02-23T18:07:02.944Z,142.23
2019-02-23T18:09:32.655Z,101.03
2019-02-23T18:12:02.327Z,114.97
2019-02-23T18:14:32.056Z,118.53
2019-02-23T18:17:01.762Z,107.43
2019-02-23T18:19:31.418Z,91.00
2019-02-23T18:22:01.160Z,61.97
2019-02-23T18:24:30.865Z,59.97
2019-02-23T18:27:00.549Z,71.63
2019-02-23T18:29:30.327Z,74.23
2019-02-23T18:32:00.052Z,70.30
2019-02-23T18:34:31.618Z,72.30
2019-02-23T18:37:01.052Z,77.70
2019-02-23T18:39:30.937Z,60.77
2019-02-23T18:42:00.735Z,50.30
2019-02-23T18:44:30.410Z,48.70
2019-02-23T18:47:44.069Z,46.13
2019-02-23T18:50:14.808Z,45.23
2019-02-23T18:52:44.474Z,56.23
2019-02-23T18:55:14.166Z,55.30
2019-02-23T18:57:44.136Z,50.90
2019-02-23T19:00:14.423Z,34.53
2019-02-23T19:02:44.086Z,31.30
2019-02-23T19:05:26.619Z,33.20
2019-02-23T19:08:03.997Z,34.10
2019-02-23T19:10:34.181Z,42.07
2019-02-23T19:13:08.426Z,36.47
2019-02-23T19:15:37.864Z,42.03
2019-02-23T19:18:07.633Z,44.97
2019-02-23T19:20:37.377Z,42.97
2019-02-23T19:23:07.047Z,40.37
2019-02-23T19:25:36.697Z,36.47
2019-02-23T19:28:06.424Z,34.70
2019-02-23T19:30:36.131Z,33.70
2019-02-23T19:33:07.810Z,35.60
2019-02-23T19:35:37.533Z,36.20
2019-02-23T19:38:07.263Z,40.40
2019-02-23T19:40:36.950Z,34.37
2019-02-23T19:43:06.621Z,38.10
2019-02-23T19:45:36.365Z,29.77
2019-02-23T19:48:06.523Z,33.03
2019-02-23T19:50:40.117Z,32.90
2019-02-23T19:53:10.715Z,28.33
2019-02-23T19:55:42.651Z,31.67
2019-02-23T19:58:12.322Z,33.37
2019-02-23T20:00:42.010Z,32.10
2019-02-23T20:03:11.812Z,36.47
2019-02-23T20:05:41.426Z,48.07
2019-02-23T20:08:11.093Z,76.03
2019-02-23T20:10:40.849Z,85.70
2019-02-23T20:13:10.506Z,72.33
2019-02-23T20:15:40.215Z,65.00
2019-02-23T20:18:09.895Z,72.67
2019-02-23T20:20:40.509Z,85.13
2019-02-23T20:23:10.279Z,61.90
2019-02-23T20:25:40.003Z,56.83
2019-02-23T20:28:09.739Z,59.40
2019-02-23T20:30:39.415Z,56.73
2019-02-23T20:33:09.150Z,56.97
2019-02-23T20:35:38.823Z,121.27
2019-02-23T20:38:08.478Z,122.50
2019-02-23T20:40:38.239Z,121.27
2019-02-23T20:43:07.917Z,193.70
2019-02-23T20:45:37.598Z,79.40
2019-02-23T20:48:07.300Z,86.27
2019-02-23T20:50:36.986Z,76.30
2019-02-23T20:53:06.695Z,76.70
2019-02-23T20:55:36.345Z,41.50
2019-02-23T20:58:06.073Z,46.93
2019-02-23T21:00:35.737Z,171.43
2019-02-23T21:03:05.429Z,115.27
2019-02-23T21:05:35.128Z,57.10
2019-02-23T21:08:05.162Z,36.63
2019-02-23T21:10:34.937Z,34.20
2019-02-23T21:13:04.648Z,34.20
2019-02-23T21:15:34.350Z,38.63
2019-02-23T21:18:04.067Z,45.40
2019-02-23T21:20:33.787Z,37.43
2019-02-23T21:23:03.488Z,35.83
2019-02-23T21:25:33.197Z,52.03
2019-02-23T21:28:02.894Z,45.43
2019-02-23T21:30:32.597Z,42.30
2019-02-23T21:33:02.263Z,45.50
2019-02-23T21:35:32.437Z,36.83
2019-02-23T21:38:02.069Z,35.47
2019-02-23T21:40:31.814Z,37.93
2019-02-23T21:43:01.505Z,30.97
2019-02-23T21:45:31.219Z,35.13
2019-02-23T21:48:00.881Z,38.47
2019-02-23T21:50:30.647Z,50.53
2019-02-23T21:53:00.355Z,109.57
2019-02-23T21:55:32.127Z,120.03
2019-02-23T21:58:01.786Z,67.63
2019-02-23T22:00:31.515Z,52.53
2019-02-23T22:03:01.187Z,43.70
2019-02-23T22:05:30.895Z,45.70
2019-02-23T22:08:00.550Z,49.93
2019-02-23T22:10:30.231Z,41.83
2019-02-23T22:12:59.934Z,40.37
2019-02-23T22:15:29.771Z,40.20
2019-02-23T22:17:59.496Z,37.00
2019-02-23T22:20:29.153Z,38.60
2019-02-23T22:22:58.824Z,47.40
2019-02-23T22:25:28.540Z,43.00
2019-02-23T22:27:58.223Z,41.27
2019-02-23T22:30:27.891Z,33.37
2019-02-23T22:32:57.585Z,49.17
2019-02-23T22:35:27.251Z,95.27
2019-02-23T22:37:56.976Z,68.63
2019-02-23T22:40:26.687Z,56.27
2019-02-23T22:42:56.359Z,45.53
2019-02-23T22:45:26.083Z,50.67
2019-02-23T22:47:55.815Z,55.07
2019-02-23T22:50:25.494Z,50.90
2019-02-23T22:52:55.187Z,58.20
2019-02-23T22:55:24.958Z,58.23
2019-02-23T22:57:54.625Z,76.83
2019-02-23T23:00:28.474Z,57.67
2019-02-23T23:02:58.425Z,55.67
2019-02-23T23:05:28.091Z,178.20
2019-02-23T23:07:57.830Z,96.70
2019-02-23T23:10:27.499Z,66.17
2019-02-23T23:12:57.855Z,51.43
2019-02-23T23:15:27.634Z,56.53
2019-02-23T23:17:57.283Z,53.60
2019-02-23T23:20:26.979Z,57.77
2019-02-23T23:22:56.664Z,50.63
2019-02-23T23:25:26.383Z,41.97
2019-02-23T23:27:56.135Z,57.37
2019-02-23T23:30:25.761Z,73.03
2019-02-23T23:32:56.203Z,59.30
2019-02-23T23:35:25.849Z,51.27
2019-02-23T23:37:55.522Z,37.17
2019-02-23T23:40:25.205Z,56.97
2019-02-23T23:42:58.149Z,39.90
2019-02-23T23:45:26.199Z,34.90
2019-02-23T23:47:55.907Z,42.30
2019-02-23T23:50:25.578Z,38.90
2019-02-23T23:52:55.284Z,37.17
2019-02-23T23:55:24.959Z,54.27
2019-02-23T23:57:58.340Z,66.43
